»·PEaware :: PHSQV EGPF-EHBD

PHSQV :: EGPF-EHBD

FLIGHT INFORMATION

Flight Status: Arrived
Operator: Unknown
More flights by this operator :: More flights under this callsign
Pilot: Gabor H. (24209)
Aircraft: Unknown
(EPIC)
More flights by this aircraft type
Origin: EGPF Glasgow
United Kingdom
Destination: EHBD Budel
Netherlands
More flights between these airports :: More routes between these airports
Route: TLA Y96 AGPED N110 DOLAS L603 LAMSO
File this flight plan on PilotEdge
Remarks:
Altitude:
(Current/Filed)
27,000ft
Speed:
(Current/Filed)
325kts
Departed: 17-Aug-22 01:46 AM
Arrived: 17-Aug-22 03:36 AM
Distance/Time
Traveled:
451nm/1:49
Distance/Time
To Go:
Arrived

Flight Plot

Page will automatically refresh every two minutes.

Flight plan parsing failed; only flown route is shown


Map Options




Map Legend


Flown Route
Filed Route
Departure Airport
Arrival Airport
Navaid (VOR, NDB)
Fix

Horizontal Profiles

Position Reports

Time Latitude Longitude Heading Altitude Ground
Speed
17-Aug-22 01:35 55.869780 -4.426164 164 23ft 0kts
17-Aug-22 01:36 55.869780 -4.426164 164 23ft 0kts
17-Aug-22 01:37 55.869780 -4.426164 164 23ft 0kts
17-Aug-22 01:38 55.869780 -4.426164 164 23ft 0kts
17-Aug-22 01:39 55.869780 -4.426164 164 23ft 0kts
17-Aug-22 01:40 55.869780 -4.426164 164 23ft 0kts
17-Aug-22 01:41 55.869780 -4.426164 164 23ft 0kts
17-Aug-22 01:42 55.869819 -4.425934 354 23ft 5kts
17-Aug-22 01:43 55.868227 -4.431702 255 23ft 22kts
17-Aug-22 01:44 55.864723 -4.442430 226 23ft 22kts
17-Aug-22 01:45 55.866411 -4.443484 45 23ft 25kts
17-Aug-22 01:46 55.892812 -4.398759 47 1269ft 208kts
17-Aug-22 01:47 55.924121 -4.302496 85 3279ft 246kts
17-Aug-22 01:48 55.924409 -4.177844 109 4986ft 268kts
17-Aug-22 01:49 55.876439 -4.076293 132 5007ft 261kts
17-Aug-22 01:50 55.827895 -3.982175 132 5008ft 257kts
17-Aug-22 01:51 55.779041 -3.887554 131 5948ft 262kts
17-Aug-22 01:52 55.728379 -3.789887 133 6008ft 269kts
17-Aug-22 01:52 55.686394 -3.709229 132 6009ft 268kts
17-Aug-22 01:54 55.627077 -3.595720 132 6009ft 270kts
17-Aug-22 01:55 55.575854 -3.498152 132 6009ft 270kts
17-Aug-22 01:56 55.524649 -3.401019 132 6009ft 271kts
17-Aug-22 01:57 55.493796 -3.297006 101 6010ft 270kts
17-Aug-22 01:57 55.482727 -3.196717 100 8618ft 238kts
17-Aug-22 01:58 55.470375 -3.081349 100 11866ft 241kts
17-Aug-22 01:59 55.451370 -2.966585 117 14868ft 253kts
17-Aug-22 02:01 55.410825 -2.837950 118 17835ft 266kts
17-Aug-22 02:02 55.373961 -2.722741 118 19858ft 276kts
17-Aug-22 02:02 55.342212 -2.623904 117 21274ft 283kts
17-Aug-22 02:03 55.302930 -2.502162 117 22775ft 288kts
17-Aug-22 02:04 55.263469 -2.380487 117 24271ft 287kts
17-Aug-22 02:05 55.224171 -2.259946 117 25765ft 284kts
17-Aug-22 02:06 55.185283 -2.141222 116 27107ft 284kts
17-Aug-22 02:07 55.143220 -2.013503 117 27133ft 317kts
17-Aug-22 02:08 55.079133 -1.907074 149 27131ft 333kts
17-Aug-22 02:09 54.998173 -1.826690 150 27130ft 337kts
17-Aug-22 02:10 54.916720 -1.746554 150 27129ft 337kts
17-Aug-22 02:11 54.835342 -1.666876 150 27128ft 335kts
17-Aug-22 02:12 54.754335 -1.587924 150 27128ft 334kts
17-Aug-22 02:13 54.673835 -1.509833 150 27128ft 333kts
17-Aug-22 02:14 54.593116 -1.431884 150 27129ft 332kts
17-Aug-22 02:15 54.512933 -1.354803 150 27128ft 331kts
17-Aug-22 02:16 54.432699 -1.278024 151 27127ft 330kts
17-Aug-22 02:17 54.352393 -1.201523 151 27121ft 330kts
17-Aug-22 02:18 54.274475 -1.119824 145 27107ft 331kts
17-Aug-22 02:19 54.199100 -1.030041 145 27101ft 331kts
17-Aug-22 02:20 54.123833 -0.940711 145 27100ft 331kts
17-Aug-22 02:21 54.048214 -0.851367 145 27090ft 331kts
17-Aug-22 02:22 53.972809 -0.762644 146 27081ft 331kts
17-Aug-22 02:23 53.897722 -0.674759 146 27074ft 326kts
17-Aug-22 02:24 53.823455 -0.588183 146 27082ft 323kts
17-Aug-22 02:25 53.749787 -0.502678 146 27078ft 322kts
17-Aug-22 02:26 53.676071 -0.417489 146 27074ft 321kts
17-Aug-22 02:27 53.602557 -0.332896 147 27074ft 320kts
17-Aug-22 02:28 53.541835 -0.224858 128 27074ft 322kts
17-Aug-22 02:29 53.487939 -0.105053 128 27074ft 321kts
17-Aug-22 02:30 53.434152 0.014125 129 27048ft 322kts
17-Aug-22 02:31 53.380586 0.132164 131 27037ft 316kts
17-Aug-22 02:32 53.327462 0.248714 131 27019ft 313kts
17-Aug-22 02:33 53.274749 0.363856 131 27006ft 312kts
17-Aug-22 02:34 53.222191 0.478105 131 26993ft 311kts
17-Aug-22 02:35 53.169456 0.592245 131 26990ft 310kts
17-Aug-22 02:36 53.117021 0.705206 132 26989ft 308kts
17-Aug-22 02:37 53.064761 0.817298 132 26989ft 307kts
17-Aug-22 02:38 53.012448 0.929009 132 26988ft 306kts
17-Aug-22 02:39 52.972896 1.053641 107 26991ft 318kts
17-Aug-22 02:40 52.956008 1.197484 106 26988ft 319kts
17-Aug-22 02:41 52.939204 1.341548 106 26988ft 318kts
17-Aug-22 02:42 52.922206 1.485655 106 26988ft 318kts
17-Aug-22 02:43 52.905139 1.628801 106 26987ft 317kts
17-Aug-22 02:44 52.893367 1.726622 107 26996ft 317kts
17-Aug-22 02:45 52.875991 1.869735 107 26996ft 318kts
17-Aug-22 02:46 52.858401 2.013055 107 26996ft 318kts
17-Aug-22 02:47 52.840646 2.156208 107 26996ft 317kts
17-Aug-22 02:48 52.822807 2.298553 107 26995ft 317kts
17-Aug-22 02:49 52.804736 2.441236 106 26995ft 317kts
17-Aug-22 02:50 52.786545 2.583418 106 26993ft 317kts
17-Aug-22 02:51 52.768235 2.725097 107 26990ft 316kts
17-Aug-22 02:52 52.749723 2.866900 107 26987ft 316kts
17-Aug-22 02:53 52.720402 2.998261 143 26987ft 301kts
17-Aug-22 02:54 52.649057 3.067733 153 26970ft 298kts
17-Aug-22 02:55 52.576011 3.131525 153 26966ft 298kts
17-Aug-22 02:56 52.502559 3.195344 153 26966ft 299kts
17-Aug-22 02:57 52.429196 3.258838 153 26965ft 299kts
17-Aug-22 02:58 52.355842 3.322088 153 26964ft 299kts
17-Aug-22 02:59 52.281950 3.385555 152 26959ft 300kts
17-Aug-22 03:00 52.208306 3.448574 152 26946ft 301kts
17-Aug-22 03:01 52.134278 3.511687 152 26936ft 301kts
17-Aug-22 03:02 52.060050 3.574728 152 26935ft 301kts
17-Aug-22 03:03 51.985842 3.637505 152 26934ft 301kts
17-Aug-22 03:04 51.911606 3.700086 152 26936ft 302kts
17-Aug-22 03:05 51.837216 3.762555 152 26941ft 303kts
17-Aug-22 03:06 51.762399 3.825146 152 26941ft 303kts
17-Aug-22 03:07 51.704952 3.919933 119 26942ft 309kts
17-Aug-22 03:08 51.667517 4.044027 118 26940ft 309kts
17-Aug-22 03:09 51.629905 4.169701 118 26385ft 325kts
17-Aug-22 03:10 51.588764 4.306433 118 24567ft 351kts
17-Aug-22 03:11 51.545621 4.449019 118 22677ft 360kts
17-Aug-22 03:12 51.545495 4.599859 59 20640ft 364kts
17-Aug-22 03:13 51.603296 4.732574 56 18706ft 364kts
17-Aug-22 03:14 51.660737 4.862383 56 16807ft 350kts
17-Aug-22 03:15 51.667179 5.003276 114 14862ft 325kts
17-Aug-22 03:16 51.625704 5.129025 133 13116ft 315kts
17-Aug-22 03:17 51.566002 5.230285 134 11442ft 311kts
17-Aug-22 03:18 51.506445 5.330306 134 9793ft 310kts
17-Aug-22 03:19 51.461103 5.432088 108 8043ft 272kts
17-Aug-22 03:20 51.439845 5.547803 107 6493ft 269kts
17-Aug-22 03:21 51.419565 5.657696 107 5165ft 248kts
17-Aug-22 03:22 51.399631 5.765142 106 3837ft 258kts
17-Aug-22 03:23 51.366604 5.859120 146 3001ft 243kts
17-Aug-22 03:24 51.343626 5.950084 144 3003ft 228kts
17-Aug-22 03:25 51.285604 5.965243 179 2994ft 194kts
17-Aug-22 03:26 51.282288 5.910568 342 3007ft 171kts
17-Aug-22 03:27 51.329876 5.891687 348 3004ft 180kts
17-Aug-22 03:28 51.376312 5.865998 305 3009ft 180kts
17-Aug-22 03:29 51.388936 5.786173 281 2443ft 200kts
17-Aug-22 03:30 51.372531 5.710380 210 2002ft 187kts
17-Aug-22 03:31 51.331613 5.672200 211 1761ft 154kts
17-Aug-22 03:32 51.302372 5.644941 211 1117ft 106kts
17-Aug-22 03:33 51.278318 5.622557 210 567ft 96kts
17-Aug-22 03:34 51.257289 5.602954 209 109ft 66kts
17-Aug-22 03:35 51.255906 5.600271 29 108ft 13kts
17-Aug-22 03:36 51.258004 5.600075 27 108ft 0kts
17-Aug-22 03:37 51.258065 5.600173 38 108ft 0kts
17-Aug-22 03:38 51.258065 5.600173 38 108ft 0kts

Navigation Log

Ident Type
Flight plan parsing failed, navigation log unavailable